KLIT/LIT METAR and TAF weather

Enter ICAO airport designator
Station Type Date Time Source
KLIT METAR 2021/09/16 09:53 UTC NOAA

KLIT 160953Z 05005KT 9SM FEW027 FEW250 21/19 A2993 RMK AO2 SLP135 T02060194


Station Type Date Time Source
KLIT Decoded METAR 2021/09/16 09:53 UTC NOAA

LITTLE ROCK ADAMS FIELD, AR, United States (KLIT) 34-44N 92-14W 79M
Sep 16, 2021 - 05:53 AM EDT / 2021.09.16 0953 UTC
Wind: from the NE (050 degrees) at 6 MPH (5 KT):0
Visibility: 9 mile(s):0
Sky conditions: mostly clear
Temperature: 69.1 F (20.6 C)
Dew Point: 66.9 F (19.4 C)
Relative Humidity: 92%
Pressure (altimeter): 29.93 in. Hg (1013 hPa)
ob: KLIT 160953Z 05005KT 9SM FEW027 FEW250 21/19 A2993 RMK AO2 SLP135 T02060194
cycle: 10

Station Type Date Time Source
KLIT TAF 2021/09/16 06:33 UTC NOAA

TAF KLIT 160530Z 1606/1706 07007KT P6SM FEW050
FM161000 VRB03KT P6SM SCT015 BKN030
FM161600 08009KT P6SM BKN035
FM161800 09008KT P6SM BKN050

Example: see airport list